This is the latest recevied weather packets stored in our database for station/object Ostrach. If no packets are shown the sender has not sent any weather packets the latest 10 day(s).
| Time | Temp. | Humidity | Pressure | Rain* | Wind** | Luminosity | Snow |
|---|---|---|---|---|---|---|---|
| 1778144531 | 11.67° C | 79% | 1012.2 hPa | 1.27 mm | - | - | - |
| 1778142732 | 11.11° C | 84% | 1012 hPa | 1.27 mm | - | - | - |
| 1778140931 | 10.56° C | 86% | 1012 hPa | 1.27 mm | - | - | - |
| 1778139132 | 9.44° C | 89% | 1011.7 hPa | 1.27 mm | - | - | - |
| 1778137332 | 9.44° C | 90% | 1011.4 hPa | 1.27 mm | - | - | - |
| 1778135532 | 8.89° C | 90% | 1011.3 hPa | 1.02 mm | - | - | - |
| 1778133731 | 8.33° C | 91% | 1011 hPa | 0.76 mm | - | - | - |
| 1778131931 | 8.33° C | 90% | 1010.7 hPa | 0.51 mm | - | - | - |
| 1778130133 | 8.33° C | 89% | 1010.4 hPa | 0.25 mm | - | - | - |
| 1778128331 | 8.33° C | 90% | 1010.1 hPa | 0.25 mm | - | - | - |
| 1778126536 | 8.33° C | 89% | 1009.8 hPa | 0.25 mm | - | - | - |
| 1778124731 | 8.33° C | 89% | 1009.7 hPa | 0 mm | - | - | - |
| 1778122931 | 8.33° C | 88% | 1009.5 hPa | 0 mm | - | - | - |
| 1778121132 | 8.33° C | 89% | 1009.4 hPa | 0 mm | - | - | - |
| 1778119332 | 7.78° C | 89% | 1009.3 hPa | 0 mm | - | - | - |
| 1778117533 | 7.78° C | 90% | 1009.2 hPa | 0 mm | - | - | - |
| 1778115731 | 7.78° C | 90% | 1009.2 hPa | 0 mm | - | - | - |
| 1778113929 | 7.78° C | 89% | 1008.9 hPa | 0 mm | - | - | - |
| 1778112129 | 7.78° C | 90% | 1008.8 hPa | 0 mm | - | - | - |
| 1778110329 | 7.78° C | 89% | 1008.8 hPa | 0 mm | - | - | - |
| 1778108530 | 7.78° C | 89% | 1008.7 hPa | 0 mm | - | - | - |
| 1778106729 | 8.33° C | 89% | 1008.6 hPa | 0 mm | - | - | - |
| 1778104929 | 8.33° C | 89% | 1008.3 hPa | 7.11 mm | - | - | - |
| 1778103130 | 8.33° C | 89% | 1008.3 hPa | 7.11 mm | - | - | - |
| 1778101330 | 8.33° C | 88% | 1008.3 hPa | 7.11 mm | - | - | - |
* Rain since midnight (hover to see other rain measurements)
** Current wind speed in m/s (hover to see current wind gust speed)